Carignan/Rivière L’Acadie Water Aerodrome

CJF2 · Quebec, 加拿大

罗盘
风向 的 风向 200°
风: 5 kt, 2 beaufort

添加一条跑道以查看侧风和逆风信息。

添置 跑道
0 ft 1.000 2.000 3.000 4.000 5.000
没有云
METAR CYHU 020500Z AUTO 20005KT 9SM CLR M02/M05 A3033 RMK SLP273

METAR Carignan/Rivière L’Acadie Water Aerodrome - CJF2

Carignan/Rivière L’Acadie Water Aerodrome是,加拿大中的水上飞机基地。 该机场位于纬度45,47360和经度-73,29480。 该机场的伪ICAO代码为CJF2。 机场在Montreal FIR中。

该航空气象观测是针对Montréal / Saint-Hubert Airport在2024年3月2日 00:00, 当地时间进行的。

机场观察

风向为200°,速度为5 kt。

可见度为9 mi。

有没有云。 没有观察到天花板。

温度为-2 °C,阵风为-8 °C。 露点为-5 °C,相对湿度为80%。 海平面上的气压为30,33 inHg (QNH)。

白天

今天,太阳从06:28升起,在17:42降落。 这适用于Carignan/Rivière L’Acadie Water Aerodrome,世界夏令时可能有所不同。 当地时间与世界标准时间之间的时差为-5 小时。 当前,没有夏令时有效。

公司介绍

我们没有关于这个机场的公司信息。

体会

到Vliegles.nl去找飞行课程,跳伞和其他飞行体验。 浏览页面,了解Carignan/Rivière L’Acadie Water Aerodrome附近所有可用的活动。 你也可以使用搜索功能来寻找你所在地附近的特定飞行课程、跳伞或其他飞行体验。

乌云

- CLR 没有云

温度 & 天气

温度 -2 °C
露点 -5 °C
相对湿度 80%
风寒 -8 °C
Kp-index 1 (0-9)

评论

SLP273海平面压力为30,34 inHg (30,34 inHg)

白天

日出
06:28 (5:22)
中午
12:05
日落
17:42

小工具

你想在你的网站上有一个关于Carignan/Rivière L’Acadie Water Aerodrome的当前航空天气(METAR)的小部件吗?

显示HTML代码
?>